Time;durP1;ratioP1;P1;durP2;ratioP2;P2;SDS_P1;SDS_P2;PMS_P1;PMS_P2;Temp;Humidity;BMP_temperature;BMP_pressure;BME280_temperature;BME280_humidity;BME280_pressure;Samples;Min_cycle;Max_cycle;Signal;HPM_P1;HPM_P2
2024/01/28 00:04:53;;;;;;;33.25;29.27;;;3.40;85.10;;;;;;12112589;29;20045;-75
2024/01/28 00:11:14;;;;;;;32.70;28.33;;;3.30;84.90;;;;;;12128677;29;20048;-73
2024/01/28 00:17:15;;;;;;;31.15;25.38;;;3.20;85.10;;;;;;12128586;29;20044;-74
2024/01/28 00:23:17;;;;;;;36.50;29.20;;;3.30;85.00;;;;;;12128992;29;20033;-73
2024/01/28 00:29:20;;;;;;;36.95;32.35;;;3.30;85.00;;;;;;12127975;29;20395;-74
2024/01/28 00:35:21;;;;;;;45.28;38.65;;;3.40;85.10;;;;;;12111357;29;20045;-73
2024/01/28 00:41:26;;;;;;;37.63;33.67;;;3.50;85.10;;;;;;12128059;29;20036;-74
2024/01/28 00:47:28;;;;;;;33.25;29.75;;;3.60;85.00;;;;;;12127253;29;20044;-74
2024/01/28 00:53:29;;;;;;;36.67;32.83;;;3.60;84.70;;;;;;12126747;29;20444;-74
2024/01/28 00:59:31;;;;;;;33.03;29.52;;;3.60;84.60;;;;;;12126720;29;20345;-74
2024/01/28 01:05:34;;;;;;;34.22;30.27;;;3.40;84.60;;;;;;12126368;29;20033;-74
2024/01/28 01:11:35;;;;;;;33.20;27.67;;;3.30;84.80;;;;;;12124901;29;20037;-74
2024/01/28 01:17:37;;;;;;;28.30;24.35;;;3.30;84.80;;;;;;12125458;29;20037;-74
2024/01/28 01:23:38;;;;;;;33.55;25.73;;;3.20;84.70;;;;;;12125373;29;20040;-74
2024/01/28 01:29:40;;;;;;;28.35;24.00;;;3.10;84.80;;;;;;12125279;29;20040;-74
2024/01/28 01:35:41;;;;;;;23.25;20.75;;;3.00;85.00;;;;;;12125035;29;20032;-74
2024/01/28 01:41:43;;;;;;;27.55;23.77;;;3.10;84.80;;;;;;12125392;29;20342;-74
2024/01/28 01:47:45;;;;;;;29.13;23.45;;;3.10;84.70;;;;;;12123334;29;20040;-73
2024/01/28 01:53:47;;;;;;;25.30;22.70;;;3.00;84.80;;;;;;12108130;29;20068;-73
2024/01/28 01:59:48;;;;;;;28.98;22.27;;;2.90;84.80;;;;;;12124024;29;20032;-73
2024/01/28 02:05:50;;;;;;;32.17;26.67;;;2.80;84.80;;;;;;12122734;29;20056;-73
2024/01/28 02:11:52;;;;;;;28.65;25.27;;;2.70;85.00;;;;;;12123532;29;20055;-73
2024/01/28 02:17:55;;;;;;;30.30;23.70;;;2.90;84.90;;;;;;12123376;29;20029;-74
2024/01/28 02:23:56;;;;;;;23.08;19.48;;;2.90;84.60;;;;;;12123736;29;20351;-74
2024/01/28 02:29:58;;;;;;;25.13;21.27;;;2.80;84.70;;;;;;12122011;29;20033;-73
2024/01/28 02:36:00;;;;;;;25.98;21.15;;;2.60;84.70;;;;;;12121640;29;20352;-73
2024/01/28 02:42:01;;;;;;;23.15;20.67;;;2.60;84.80;;;;;;12122679;29;20041;-74
2024/01/28 02:48:03;;;;;;;28.58;24.10;;;2.60;84.80;;;;;;12121904;29;20460;-73
2024/01/28 02:54:06;;;;;;;30.15;24.38;;;2.70;84.80;;;;;;12082697;23;20045;-73
2024/01/28 03:00:08;;;;;;;22.48;20.15;;;2.60;84.80;;;;;;12060246;29;20054;-73
2024/01/28 03:06:10;;;;;;;23.92;20.83;;;2.60;84.80;;;;;;12076719;29;20344;-73
2024/01/28 03:12:11;;;;;;;23.33;20.75;;;2.60;84.80;;;;;;12060894;29;20046;-73
2024/01/28 03:18:13;;;;;;;25.58;21.30;;;2.50;84.90;;;;;;12076367;29;20053;-73
2024/01/28 03:24:14;;;;;;;24.23;20.33;;;2.40;84.90;;;;;;12075723;29;20467;-74
2024/01/28 03:30:17;;;;;;;27.45;23.42;;;2.60;85.00;;;;;;12075943;29;20037;-74
2024/01/28 03:36:18;;;;;;;26.45;21.30;;;2.60;84.70;;;;;;12074394;29;20045;-73
2024/01/28 03:42:21;;;;;;;27.02;24.10;;;2.60;84.70;;;;;;12061447;29;20361;-73
2024/01/28 03:48:23;;;;;;;26.00;23.27;;;2.50;84.80;;;;;;12067746;29;20049;-75
2024/01/28 03:54:24;;;;;;;25.27;21.90;;;2.40;84.80;;;;;;12083938;29;20040;-75
2024/01/28 04:00:28;;;;;;;32.50;27.70;;;2.50;85.00;;;;;;12083000;29;20046;-75
2024/01/28 04:06:30;;;;;;;27.25;23.02;;;2.50;84.70;;;;;;12082910;29;20029;-75
2024/01/28 04:12:32;;;;;;;24.88;22.10;;;2.60;84.70;;;;;;12082510;29;20038;-73
2024/01/28 04:18:33;;;;;;;26.73;21.65;;;2.60;84.70;;;;;;12082355;29;20040;-73
2024/01/28 04:24:35;;;;;;;25.23;22.20;;;2.40;84.60;;;;;;12080963;29;20041;-73
2024/01/28 04:30:36;;;;;;;37.13;33.00;;;2.40;84.80;;;;;;12081692;29;20037;-73
2024/01/28 04:36:38;;;;;;;30.27;25.83;;;2.40;84.90;;;;;;12080867;29;20457;-74
2024/01/28 04:42:39;;;;;;;27.48;23.50;;;2.60;84.80;;;;;;12081944;29;20044;-73
2024/01/28 04:48:41;;;;;;;31.38;25.75;;;2.60;84.60;;;;;;12081657;29;20041;-73
2024/01/28 04:54:43;;;;;;;33.72;29.38;;;2.70;84.40;;;;;;12079878;29;20028;-73
2024/01/28 05:00:44;;;;;;;27.10;24.13;;;2.60;84.50;;;;;;12080450;29;20037;-74
2024/01/28 05:06:46;;;;;;;28.80;23.73;;;2.30;84.50;;;;;;12080328;29;20041;-73
2024/01/28 05:12:48;;;;;;;31.10;25.90;;;2.40;84.80;;;;;;12080108;29;20038;-73
2024/01/28 05:18:51;;;;;;;24.67;20.30;;;2.60;84.70;;;;;;12063693;29;20046;-73
2024/01/28 05:24:56;;;;;;;22.05;19.70;;;2.60;84.40;;;;;;12079451;29;20037;-73
2024/01/28 05:30:58;;;;;;;28.85;23.52;;;2.40;84.50;;;;;;12079857;29;20044;-73
2024/01/28 05:37:15;;;;;;;26.48;23.63;;;2.20;84.70;;;;;;12078951;29;20037;-73
2024/01/28 05:43:40;;;;;;;23.73;21.15;;;2.20;84.70;;;;;;12078199;29;20317;-73
2024/01/28 05:49:42;;;;;;;32.50;28.98;;;2.20;84.90;;;;;;12062554;29;20042;-74
2024/01/28 05:55:44;;;;;;;28.25;23.60;;;2.40;84.70;;;;;;12078270;29;20025;-74
2024/01/28 06:01:45;;;;;;;31.02;25.15;;;2.50;84.50;;;;;;12061933;29;20056;-73
2024/01/28 06:07:47;;;;;;;26.52;22.63;;;2.40;84.40;;;;;;12077457;29;20029;-73
2024/01/28 06:13:48;;;;;;;30.00;25.30;;;2.20;84.50;;;;;;12076359;29;20037;-73
2024/01/28 06:19:50;;;;;;;36.08;30.83;;;2.30;84.80;;;;;;12076099;29;20045;-73
2024/01/28 06:26:18;;;;;;;27.08;23.83;;;2.40;84.60;;;;;;12077741;29;20057;-74
2024/01/28 06:32:21;;;;;;;24.50;21.83;;;2.60;84.70;;;;;;12076815;29;20029;-73
2024/01/28 06:38:48;;;;;;;32.85;29.33;;;2.40;84.50;;;;;;12076766;29;20497;-73
2024/01/28 06:44:50;;;;;;;25.65;22.48;;;2.40;84.70;;;;;;12060610;29;20050;-74
2024/01/28 06:50:53;;;;;;;37.53;33.42;;;2.40;84.50;;;;;;12076503;29;20052;-73
2024/01/28 06:56:56;;;;;;;43.65;37.47;;;2.40;84.50;;;;;;12075493;29;20041;-73
2024/01/28 07:02:58;;;;;;;36.05;32.22;;;2.40;84.60;;;;;;12075032;29;20048;-74
2024/01/28 07:09:04;;;;;;;29.20;25.60;;;2.50;84.70;;;;;;12076075;29;20041;-73
2024/01/28 07:15:08;;;;;;;29.67;23.73;;;2.60;84.50;;;;;;12074790;29;20033;-73
2024/01/28 07:21:11;;;;;;;25.88;21.40;;;2.60;84.30;;;;;;12083927;29;20060;-73
2024/01/28 07:27:13;;;;;;;26.17;22.08;;;2.70;84.20;;;;;;12083425;29;20073;-73
2024/01/28 07:33:15;;;;;;;36.85;31.40;;;2.50;84.30;;;;;;12084350;29;20029;-73
2024/01/28 07:39:17;;;;;;;26.38;23.05;;;2.40;84.70;;;;;;12083046;29;20357;-73
2024/01/28 07:45:47;;;;;;;24.45;21.15;;;2.40;84.60;;;;;;12083971;29;20041;-73
2024/01/28 07:52:08;;;;;;;26.40;21.25;;;2.40;84.70;;;;;;12082584;29;20045;-73
2024/01/28 07:58:10;;;;;;;27.25;24.05;;;2.40;84.80;;;;;;12083483;29;20034;-73
2024/01/28 08:04:11;;;;;;;31.55;25.23;;;2.40;84.80;;;;;;12083027;29;20042;-73
2024/01/28 08:10:14;;;;;;;28.90;24.42;;;2.50;84.70;;;;;;12081600;29;20044;-73
2024/01/28 08:16:22;;;;;;;37.80;32.10;;;2.30;84.50;;;;;;12082619;29;20038;-73
2024/01/28 08:22:25;;;;;;;27.58;24.35;;;2.30;84.80;;;;;;12081188;29;20088;-73
2024/01/28 08:28:28;;;;;;;31.65;25.42;;;2.40;85.20;;;;;;12082188;29;20052;-73
2024/01/28 08:34:30;;;;;;;24.92;20.48;;;2.70;85.20;;;;;;12081812;29;20045;-74
2024/01/28 08:40:43;;;;;;;24.90;21.27;;;2.80;85.10;;;;;;12081537;29;20053;-74
2024/01/28 08:46:46;;;;;;;23.73;20.48;;;2.80;85.20;;;;;;12080119;29;20029;-74
2024/01/28 08:52:48;;;;;;;25.52;21.42;;;2.80;85.20;;;;;;12081432;29;20467;-74
2024/01/28 08:58:50;;;;;;;23.45;20.67;;;2.90;85.30;;;;;;12081567;29;20068;-73
2024/01/28 09:04:52;;;;;;;25.20;21.08;;;3.10;85.50;;;;;;12081356;29;20029;-74
2024/01/28 09:10:55;;;;;;;32.05;28.58;;;3.20;85.40;;;;;;12079437;29;20041;-73
2024/01/28 09:16:58;;;;;;;29.67;26.40;;;3.20;85.20;;;;;;12080367;29;20034;-73
2024/01/28 09:22:59;;;;;;;22.65;20.25;;;3.10;85.20;;;;;;12080413;29;20037;-74
2024/01/28 09:29:01;;;;;;;21.48;19.15;;;3.20;85.30;;;;;;12062999;29;20045;-73
2024/01/28 09:35:02;;;;;;;28.48;25.45;;;3.20;85.40;;;;;;12077985;29;20463;-73
2024/01/28 09:41:17;;;;;;;25.50;22.90;;;3.40;85.50;;;;;;12077132;29;20041;-73
2024/01/28 09:47:19;;;;;;;35.90;31.83;;;3.40;85.30;;;;;;12077265;29;20044;-73
2024/01/28 09:53:21;;;;;;;56.00;50.78;;;3.50;85.20;;;;;;12078665;29;20471;-73
2024/01/28 09:59:23;;;;;;;33.92;30.60;;;3.50;85.30;;;;;;12077895;29;20041;-73
2024/01/28 10:05:26;;;;;;;42.50;38.53;;;3.50;85.30;;;;;;12077833;29;20041;-73
2024/01/28 10:11:30;;;;;;;51.15;45.63;;;3.60;85.40;;;;;;12077571;29;20050;-73
2024/01/28 10:17:33;;;;;;;63.33;57.97;;;3.80;85.60;;;;;;12077310;29;20038;-73
2024/01/28 10:23:36;;;;;;;52.60;48.33;;;3.90;85.60;;;;;;12077124;29;20034;-73
2024/01/28 10:29:40;;;;;;;42.10;38.38;;;4.00;85.40;;;;;;12076953;29;20041;-73
2024/01/28 10:36:05;;;;;;;49.80;44.72;;;4.20;85.60;;;;;;12076917;29;20077;-73
2024/01/28 10:42:12;;;;;;;44.20;39.70;;;4.40;85.60;;;;;;12060380;29;20053;-73
2024/01/28 10:48:18;;;;;;;59.28;54.85;;;4.50;85.70;;;;;;12084376;23;20038;-73
2024/01/28 10:54:20;;;;;;;51.92;47.35;;;4.70;85.60;;;;;;12175687;29;20048;-74
2024/01/28 11:00:42;;;;;;;44.67;40.92;;;4.90;85.70;;;;;;12146440;29;20044;-73
2024/01/28 11:06:45;;;;;;;57.67;53.38;;;5.20;85.40;;;;;;12177842;29;20047;-73
2024/01/28 11:12:48;;;;;;;45.72;41.30;;;5.30;85.20;;;;;;12177829;29;20447;-73
2024/01/28 11:18:57;;;;;;;52.67;48.42;;;5.60;84.80;;;;;;12177709;29;20048;-73
2024/01/28 11:25:33;;;;;;;33.38;30.02;;;5.90;84.70;;;;;;12160819;29;20368;-73
2024/01/28 11:31:38;;;;;;;63.25;58.72;;;6.20;84.20;;;;;;12177081;29;20029;-74
2024/01/28 11:37:57;;;;;;;48.00;44.05;;;6.40;83.60;;;;;;12176911;29;20028;-74
2024/01/28 11:43:59;;;;;;;49.70;46.00;;;6.70;83.30;;;;;;12160006;29;20036;-73
2024/01/28 11:50:01;;;;;;;66.43;61.65;;;6.90;82.70;;;;;;12176898;29;20047;-73
2024/01/28 11:56:35;;;;;;;101.05;95.32;;;7.20;82.40;;;;;;12160252;29;20031;-73
2024/01/28 12:02:38;;;;;;;99.03;93.38;;;7.40;82.10;;;;;;12175160;29;20036;-73
2024/01/28 12:08:41;;;;;;;107.80;101.90;;;7.50;81.60;;;;;;12175370;29;20037;-73
2024/01/28 12:14:48;;;;;;;95.00;89.78;;;7.70;81.50;;;;;;12175149;29;20121;-74
2024/01/28 12:20:51;;;;;;;79.03;74.32;;;7.80;81.20;;;;;;12174918;29;20222;-73
2024/01/28 12:26:52;;;;;;;104.03;98.20;;;7.90;80.80;;;;;;12175351;29;20060;-73
2024/01/28 12:33:20;;;;;;;59.15;55.15;;;7.90;80.50;;;;;;12165835;29;20337;-74
2024/01/28 12:39:21;;;;;;;100.38;95.35;;;8.00;80.40;;;;;;12173059;29;20032;-74
2024/01/28 12:45:46;;;;;;;66.07;62.00;;;8.10;80.30;;;;;;12157204;29;20044;-74
2024/01/28 12:51:48;;;;;;;89.28;83.75;;;8.20;80.10;;;;;;12173990;29;20033;-74
2024/01/28 12:58:45;;;;;;;98.53;93.15;;;8.20;80.10;;;;;;12174057;29;20036;-74
2024/01/28 13:04:48;;;;;;;99.70;94.50;;;8.30;80.10;;;;;;12173127;29;20035;-74
2024/01/28 13:10:50;;;;;;;157.55;149.85;;;8.40;80.20;;;;;;12174105;29;20041;-74
2024/01/28 13:16:52;;;;;;;112.35;106.28;;;8.50;80.10;;;;;;12172477;29;20431;-74
2024/01/28 13:22:53;;;;;;;119.50;113.25;;;8.70;80.10;;;;;;12155680;29;20047;-74
2024/01/28 13:28:55;;;;;;;114.32;108.43;;;8.80;80.00;;;;;;12156339;29;20056;-74
2024/01/28 13:34:59;;;;;;;86.47;80.57;;;8.90;80.00;;;;;;12155131;29;20044;-74
2024/01/28 13:41:01;;;;;;;123.50;115.43;;;9.10;79.80;;;;;;12155132;29;20048;-74
2024/01/28 13:47:04;;;;;;;91.50;85.20;;;9.20;79.70;;;;;;12171183;29;20047;-74
2024/01/28 13:53:08;;;;;;;41.53;37.15;;;9.20;79.60;;;;;;12171259;29;20037;-74
2024/01/28 13:59:11;;;;;;;118.88;111.70;;;9.20;79.70;;;;;;12154823;29;20052;-74
2024/01/28 14:05:13;;;;;;;82.05;75.88;;;9.20;79.80;;;;;;12170502;29;20428;-74
2024/01/28 14:11:14;;;;;;;113.88;106.38;;;9.20;79.90;;;;;;12170141;29;20440;-74
2024/01/28 14:17:16;;;;;;;123.68;116.57;;;9.20;80.00;;;;;;12169967;29;20040;-74
2024/01/28 14:23:18;;;;;;;106.85;100.50;;;9.30;79.90;;;;;;12153634;29;20040;-74
2024/01/28 14:29:20;;;;;;;116.00;108.80;;;9.50;79.80;;;;;;12169368;29;20037;-74
2024/01/28 14:35:23;;;;;;;81.07;75.35;;;9.70;79.60;;;;;;12170688;29;20053;-74
2024/01/28 14:41:25;;;;;;;79.72;74.20;;;9.80;79.20;;;;;;12152537;29;20047;-77
2024/01/28 14:47:27;;;;;;;92.53;86.28;;;9.70;79.30;;;;;;12169071;29;20028;-74
2024/01/28 14:53:29;;;;;;;84.13;79.10;;;9.50;79.80;;;;;;12168756;29;20345;-74
2024/01/28 14:59:31;;;;;;;57.28;52.78;;;9.70;79.50;;;;;;12152641;29;20032;-74
2024/01/28 15:05:33;;;;;;;32.10;27.05;;;10.20;78.70;;;;;;12152029;29;20351;-74
2024/01/28 15:11:36;;;;;;;29.85;22.42;;;10.70;78.10;;;;;;12151902;29;20343;-74
2024/01/28 15:17:38;;;;;;;29.38;22.20;;;11.00;77.80;;;;;;12152422;29;20036;-74
2024/01/28 15:23:39;;;;;;;28.35;22.17;;;11.50;77.10;;;;;;12168256;29;20036;-74
2024/01/28 15:29:43;;;;;;;27.92;21.27;;;11.60;76.50;;;;;;12168051;29;20051;-73
2024/01/28 15:35:45;;;;;;;26.55;20.98;;;11.30;77.00;;;;;;12168055;29;20035;-74
2024/01/28 15:41:49;;;;;;;28.20;24.00;;;10.90;77.10;;;;;;12158582;29;20037;-74
2024/01/28 15:47:50;;;;;;;72.80;68.63;;;10.10;78.30;;;;;;12177048;29;20033;-74
2024/01/28 15:53:52;;;;;;;139.25;132.77;;;9.80;79.00;;;;;;12176122;29;20096;-74
2024/01/28 15:59:57;;;;;;;139.88;133.15;;;9.20;79.60;;;;;;12176039;29;20028;-74
2024/01/28 16:05:59;;;;;;;53.03;49.75;;;8.60;80.50;;;;;;12175714;29;20347;-74
2024/01/28 16:12:01;;;;;;;43.85;40.65;;;8.20;81.00;;;;;;12175276;29;20028;-74
2024/01/28 16:18:04;;;;;;;32.80;29.63;;;7.90;81.40;;;;;;12143510;29;20041;-74
2024/01/28 16:24:06;;;;;;;21.75;15.77;;;7.70;81.80;;;;;;12175618;29;20032;-74
2024/01/28 16:30:09;;;;;;;21.30;18.08;;;7.50;82.00;;;;;;12174648;29;20045;-74
2024/01/28 16:36:10;;;;;;;13.57;10.00;;;7.30;82.20;;;;;;12174585;29;20040;-74
2024/01/28 16:42:12;;;;;;;19.80;15.85;;;7.20;82.40;;;;;;12174235;29;20458;-74
2024/01/28 16:48:14;;;;;;;17.50;14.80;;;7.00;82.50;;;;;;12172195;29;20036;-74
2024/01/28 16:54:16;;;;;;;21.25;18.48;;;6.90;82.70;;;;;;12157070;29;20036;-74
2024/01/28 17:00:18;;;;;;;21.83;18.05;;;6.70;82.80;;;;;;12172853;29;20032;-74
2024/01/28 17:06:20;;;;;;;22.52;19.42;;;6.70;82.90;;;;;;12173213;29;20447;-73
2024/01/28 17:12:22;;;;;;;18.15;16.38;;;6.60;82.90;;;;;;12172791;29;20028;-73
2024/01/28 17:18:26;;;;;;;29.88;27.60;;;6.50;83.00;;;;;;12155688;29;20040;-73
2024/01/28 17:24:28;;;;;;;24.02;20.30;;;6.50;83.10;;;;;;12171215;29;20035;-73
2024/01/28 17:30:30;;;;;;;33.97;30.63;;;6.40;83.20;;;;;;12171582;29;20045;-74
2024/01/28 17:36:35;;;;;;;31.60;27.70;;;6.30;83.30;;;;;;12171756;29;20478;-74
2024/01/28 17:42:37;;;;;;;38.63;34.63;;;6.20;83.40;;;;;;12171411;29;20061;-74
2024/01/28 17:48:39;;;;;;;36.40;32.38;;;6.10;83.50;;;;;;12169905;29;20036;-74
2024/01/28 17:54:40;;;;;;;34.03;30.58;;;6.00;83.50;;;;;;12170935;29;20436;-74
2024/01/28 18:00:42;;;;;;;41.45;37.90;;;5.90;83.50;;;;;;12169324;29;20037;-74
2024/01/28 18:06:44;;;;;;;25.70;22.95;;;5.80;83.40;;;;;;12169266;29;20039;-74
2024/01/28 18:12:49;;;;;;;31.45;26.23;;;5.70;83.30;;;;;;12170075;29;20039;-73
2024/01/28 18:18:52;;;;;;;38.33;33.60;;;5.50;83.50;;;;;;12169961;29;20041;-74
2024/01/28 18:24:53;;;;;;;24.67;22.48;;;5.40;83.50;;;;;;12171052;29;20035;-74
2024/01/28 18:30:55;;;;;;;32.47;29.15;;;5.40;83.50;;;;;;12168300;29;20036;-74
2024/01/28 18:36:57;;;;;;;37.22;33.13;;;5.30;83.50;;;;;;12168766;29;20061;-74
2024/01/28 18:42:59;;;;;;;34.17;30.55;;;5.20;83.60;;;;;;12169201;29;20044;-74
2024/01/28 18:49:01;;;;;;;47.63;43.92;;;5.30;83.50;;;;;;12175322;23;20055;-74
2024/01/28 18:55:03;;;;;;;40.25;36.45;;;5.30;83.30;;;;;;12168959;29;20029;-74
2024/01/28 19:01:05;;;;;;;25.02;22.77;;;5.10;83.40;;;;;;12167702;29;20351;-74
2024/01/28 19:07:09;;;;;;;23.65;21.40;;;4.90;83.50;;;;;;12168680;29;20036;-74
2024/01/28 19:13:11;;;;;;;40.97;37.70;;;4.80;83.70;;;;;;12170734;29;20039;-74
2024/01/28 19:19:13;;;;;;;44.72;40.75;;;4.70;83.80;;;;;;12177968;29;20032;-74
2024/01/28 19:25:16;;;;;;;47.08;42.75;;;4.70;83.80;;;;;;12177700;29;20360;-74
2024/01/28 19:31:18;;;;;;;42.00;38.28;;;4.60;83.70;;;;;;12177281;29;20040;-74
2024/01/28 19:37:20;;;;;;;50.55;46.60;;;4.50;83.70;;;;;;12160457;29;20364;-74
2024/01/28 19:43:22;;;;;;;34.00;31.15;;;4.50;83.80;;;;;;12175731;29;20052;-74
2024/01/28 19:49:24;;;;;;;39.28;36.67;;;4.70;83.80;;;;;;12145964;29;20051;-74
2024/01/28 19:55:26;;;;;;;30.13;27.77;;;4.70;83.70;;;;;;12159650;29;20025;-74
2024/01/28 20:01:28;;;;;;;44.38;40.45;;;4.70;83.70;;;;;;12176065;29;20037;-74
2024/01/28 20:07:30;;;;;;;32.47;29.73;;;4.50;83.60;;;;;;12160208;29;20444;-74
2024/01/28 20:13:32;;;;;;;44.40;40.40;;;4.40;83.60;;;;;;12175439;29;20114;-74
2024/01/28 20:19:34;;;;;;;34.35;30.88;;;4.20;83.50;;;;;;12175222;29;20039;-74
2024/01/28 20:25:35;;;;;;;28.95;26.38;;;4.00;83.60;;;;;;12158320;29;20451;-73
2024/01/28 20:31:38;;;;;;;28.45;26.02;;;4.00;83.60;;;;;;12173684;29;20436;-74
2024/01/28 20:37:39;;;;;;;22.52;20.63;;;4.00;83.80;;;;;;12174442;29;20040;-73
2024/01/28 20:43:42;;;;;;;23.40;21.33;;;3.90;83.80;;;;;;12174226;29;20037;-73
2024/01/28 20:49:46;;;;;;;28.58;26.48;;;3.90;83.80;;;;;;12157226;29;20040;-73
2024/01/28 20:55:50;;;;;;;27.63;22.52;;;4.00;83.80;;;;;;12173673;29;20036;-73
2024/01/28 21:01:52;;;;;;;25.23;23.20;;;3.90;83.70;;;;;;12156952;29;20053;-74
2024/01/28 21:07:54;;;;;;;18.50;16.65;;;3.80;83.60;;;;;;12173803;29;20047;-73
2024/01/28 21:13:56;;;;;;;68.07;28.63;;;3.70;83.70;;;;;;12172687;29;20032;-74
2024/01/28 21:19:59;;;;;;;77.43;32.92;;;3.60;83.50;;;;;;12172125;29;20049;-74
2024/01/28 21:26:01;;;;;;;18.17;15.75;;;3.60;83.60;;;;;;12172947;29;20032;-74
2024/01/28 21:32:02;;;;;;;23.60;18.17;;;3.40;83.70;;;;;;12171920;29;20372;-74
2024/01/28 21:38:04;;;;;;;19.92;17.92;;;3.40;83.70;;;;;;12139043;29;20036;-74
2024/01/28 21:44:07;;;;;;;48.10;23.05;;;3.40;83.60;;;;;;12154822;29;20051;-74
2024/01/28 21:50:11;;;;;;;14.45;13.00;;;3.30;83.60;;;;;;12171077;29;20363;-74
2024/01/28 21:56:13;;;;;;;15.02;13.40;;;3.20;83.70;;;;;;12171542;29;20427;-74
2024/01/28 22:02:15;;;;;;;17.80;15.82;;;3.20;83.70;;;;;;12169494;29;20041;-74
2024/01/28 22:08:18;;;;;;;20.77;15.27;;;3.20;83.70;;;;;;12153819;29;20049;-74
2024/01/28 22:14:19;;;;;;;29.88;16.92;;;3.10;83.50;;;;;;12170154;29;20028;-74
2024/01/28 22:20:21;;;;;;;26.58;15.20;;;3.00;83.70;;;;;;12169950;29;20036;-74
2024/01/28 22:26:23;;;;;;;13.48;11.70;;;2.90;83.70;;;;;;12169709;29;20032;-74
2024/01/28 22:32:25;;;;;;;12.82;10.73;;;2.90;83.50;;;;;;12170803;29;20033;-74
2024/01/28 22:38:28;;;;;;;18.58;14.27;;;2.80;83.60;;;;;;12169395;29;20321;-74
2024/01/28 22:44:29;;;;;;;11.95;10.55;;;2.80;83.80;;;;;;12169218;29;20048;-74
2024/01/28 22:50:31;;;;;;;26.58;12.95;;;2.80;83.50;;;;;;12152788;29;20444;-74
2024/01/28 22:56:33;;;;;;;32.38;21.67;;;2.80;83.70;;;;;;12169040;29;20028;-75
2024/01/28 23:02:35;;;;;;;17.85;14.50;;;2.70;83.50;;;;;;12153357;29;20031;-75
2024/01/28 23:08:37;;;;;;;17.50;13.68;;;2.60;83.60;;;;;;12169302;29;20039;-75
2024/01/28 23:14:38;;;;;;;21.27;17.27;;;2.50;83.60;;;;;;12168485;29;20039;-75
2024/01/28 23:20:40;;;;;;;17.13;15.32;;;2.70;83.90;;;;;;12168427;29;20033;-75
2024/01/28 23:26:42;;;;;;;16.92;11.68;;;2.80;83.70;;;;;;12168280;29;20044;-75
2024/01/28 23:32:44;;;;;;;16.75;13.50;;;2.90;83.70;;;;;;12168084;29;20051;-74
2024/01/28 23:38:46;;;;;;;17.48;13.57;;;3.10;83.90;;;;;;12167986;29;20029;-74
2024/01/28 23:44:47;;;;;;;18.48;15.20;;;3.20;83.90;;;;;;12167958;29;20462;-75
2024/01/28 23:50:51;;;;;;;13.93;10.80;;;3.30;83.70;;;;;;12167906;29;20041;-75
2024/01/28 23:56:52;;;;;;;12.98;11.65;;;3.30;83.60;;;;;;12168221;29;20037;-75
